Time;durP1;ratioP1;P1;durP2;ratioP2;P2;SDS_P1;SDS_P2;PMS_P1;PMS_P2;Temp;Humidity;BMP_temperature;BMP_pressure;BME280_temperature;BME280_humidity;BME280_pressure;Samples;Min_cycle;Max_cycle;Signal;HPM_P1;HPM_P2
2021/06/06 00:01:58;;;;;;;52.27;31.33;;;14.80;99.90;;;;;;5260214;27;20576;-63
2021/06/06 00:04:25;;;;;;;58.97;32.73;;;14.80;99.90;;;;;;5260938;27;20546;-61
2021/06/06 00:06:53;;;;;;;53.10;31.47;;;14.80;99.90;;;;;;5260881;27;20123;-62
2021/06/06 00:09:21;;;;;;;58.50;33.70;;;14.70;99.90;;;;;;5262443;27;20461;-63
2021/06/06 00:11:49;;;;;;;58.33;32.07;;;14.70;99.90;;;;;;5256610;27;20490;-61
2021/06/06 00:14:20;;;;;;;63.47;33.33;;;14.70;99.90;;;;;;5260151;27;20122;-60
2021/06/06 00:16:49;;;;;;;58.90;31.63;;;14.60;99.90;;;;;;5261401;27;20124;-60
2021/06/06 00:19:17;;;;;;;62.87;32.40;;;14.60;99.90;;;;;;5260660;27;20141;-60
2021/06/06 00:21:43;;;;;;;56.03;33.43;;;14.60;99.90;;;;;;5261867;27;20131;-61
2021/06/06 00:24:14;;;;;;;49.43;30.07;;;14.60;99.90;;;;;;5256935;27;99717;-61
2021/06/06 00:26:40;;;;;;;53.17;30.83;;;14.70;99.90;;;;;;5263430;27;20617;-60
2021/06/06 00:29:07;;;;;;;53.53;28.87;;;14.80;99.90;;;;;;5260676;27;20107;-61
2021/06/06 00:31:33;;;;;;;48.33;28.83;;;14.80;99.90;;;;;;5263237;27;20124;-61
2021/06/06 00:34:00;;;;;;;48.50;30.03;;;14.70;99.90;;;;;;5263108;27;20130;-60
2021/06/06 00:36:27;;;;;;;50.53;30.60;;;14.80;99.90;;;;;;5260159;27;20455;-61
2021/06/06 00:38:53;;;;;;;62.63;36.50;;;14.80;99.90;;;;;;5260518;27;20104;-59
2021/06/06 00:41:24;;;;;;;64.43;35.97;;;14.70;99.90;;;;;;5263040;27;20138;-60
2021/06/06 00:43:51;;;;;;;65.40;35.03;;;14.60;99.90;;;;;;5260924;27;20131;-60
2021/06/06 00:46:19;;;;;;;58.40;32.87;;;14.70;99.90;;;;;;5260957;27;20116;-63
2021/06/06 00:48:45;;;;;;;60.97;33.37;;;14.60;99.90;;;;;;5260420;27;20153;-63
2021/06/06 00:51:18;;;;;;;57.90;34.67;;;14.60;99.90;;;;;;5260621;27;20375;-61
2021/06/06 00:53:49;;;;;;;62.10;35.13;;;14.70;99.90;;;;;;5260674;27;20108;-61
2021/06/06 00:56:18;;;;;;;56.20;36.97;;;14.50;99.90;;;;;;5261673;27;20121;-60
2021/06/06 00:58:49;;;;;;;52.27;32.80;;;14.60;99.90;;;;;;5261151;27;20115;-61
2021/06/06 01:01:17;;;;;;;49.43;31.07;;;14.60;99.90;;;;;;5260894;27;20503;-61
2021/06/06 01:03:44;;;;;;;58.67;35.73;;;14.70;99.90;;;;;;5260631;27;20508;-62
2021/06/06 01:06:12;;;;;;;59.37;34.83;;;14.60;99.90;;;;;;5260529;27;20470;-60
2021/06/06 01:08:40;;;;;;;53.53;34.60;;;14.60;99.90;;;;;;5260520;27;20107;-64
2021/06/06 01:11:12;;;;;;;62.87;37.10;;;14.60;99.90;;;;;;5260203;27;20122;-60
2021/06/06 01:13:43;;;;;;;55.10;33.50;;;14.70;99.90;;;;;;5259751;27;20438;-61
2021/06/06 01:16:16;;;;;;;57.27;32.07;;;14.70;99.90;;;;;;5260563;27;20107;-62
2021/06/06 01:18:47;;;;;;;51.53;30.70;;;14.70;99.90;;;;;;5260482;27;20539;-60
2021/06/06 01:21:24;;;;;;;47.73;30.30;;;14.70;99.90;;;;;;5260394;27;20123;-61
2021/06/06 01:24:13;;;;;;;53.70;33.73;;;14.70;99.90;;;;;;5259575;27;20563;-61
2021/06/06 01:26:43;;;;;;;58.83;36.17;;;14.60;99.90;;;;;;5259876;27;20150;-63
2021/06/06 01:29:19;;;;;;;52.77;33.93;;;14.50;99.90;;;;;;5260435;27;20107;-60
2021/06/06 01:31:51;;;;;;;56.93;33.27;;;14.50;99.90;;;;;;5260390;27;20111;-59
2021/06/06 01:34:19;;;;;;;51.77;32.80;;;14.60;99.90;;;;;;5260251;27;20111;-61
2021/06/06 01:36:50;;;;;;;56.20;32.87;;;14.60;99.90;;;;;;5261136;27;20134;-63
2021/06/06 01:39:21;;;;;;;51.73;34.03;;;14.60;99.90;;;;;;5260413;27;20104;-61
2021/06/06 01:41:52;;;;;;;54.00;33.37;;;14.60;99.90;;;;;;5260368;27;20174;-60
2021/06/06 01:44:22;;;;;;;51.70;32.50;;;14.60;99.90;;;;;;5260178;27;20153;-60
2021/06/06 01:46:53;;;;;;;63.50;35.00;;;14.60;99.90;;;;;;5262336;27;20550;-61
2021/06/06 01:49:22;;;;;;;59.30;35.40;;;14.40;99.90;;;;;;5260809;27;20534;-61
2021/06/06 01:51:52;;;;;;;54.13;34.50;;;14.50;99.90;;;;;;5260751;27;20161;-60
2021/06/06 01:54:23;;;;;;;67.33;37.43;;;14.50;99.90;;;;;;5260181;27;20173;-60
2021/06/06 01:56:52;;;;;;;69.67;38.03;;;14.50;99.90;;;;;;5261774;27;20107;-63
2021/06/06 01:59:23;;;;;;;67.13;40.07;;;14.50;99.90;;;;;;5260062;27;20447;-63
2021/06/06 02:01:50;;;;;;;61.90;34.60;;;14.50;99.90;;;;;;5261291;27;20131;-59
2021/06/06 02:04:17;;;;;;;58.63;35.27;;;14.60;99.90;;;;;;5259996;27;20111;-59
2021/06/06 02:06:47;;;;;;;72.37;40.23;;;14.70;99.90;;;;;;5259597;27;20506;-60
2021/06/06 02:09:17;;;;;;;72.23;37.80;;;14.60;99.90;;;;;;5259829;27;20145;-62
2021/06/06 02:11:48;;;;;;;81.07;44.13;;;14.60;99.90;;;;;;5260384;27;20773;-59
2021/06/06 02:14:18;;;;;;;87.70;43.87;;;14.50;99.90;;;;;;5261850;27;20127;-60
2021/06/06 02:16:49;;;;;;;82.70;44.23;;;14.40;99.90;;;;;;5262713;27;20573;-60
2021/06/06 02:19:16;;;;;;;81.83;44.23;;;14.50;99.90;;;;;;5262444;27;20153;-60
2021/06/06 02:21:43;;;;;;;79.57;42.70;;;14.50;99.90;;;;;;5259779;27;20126;-63
2021/06/06 02:24:10;;;;;;;83.93;44.40;;;14.50;99.90;;;;;;5260865;27;20128;-61
2021/06/06 02:26:43;;;;;;;92.00;47.67;;;14.60;99.90;;;;;;5260081;27;20165;-60
2021/06/06 02:29:20;;;;;;;87.20;45.20;;;14.40;99.90;;;;;;5261506;27;20450;-60
2021/06/06 02:31:55;;;;;;;76.17;40.57;;;14.40;99.90;;;;;;5261767;27;20124;-61
2021/06/06 02:34:26;;;;;;;80.77;43.43;;;14.50;99.90;;;;;;5260131;27;20137;-60
2021/06/06 02:36:58;;;;;;;80.03;42.60;;;14.50;99.90;;;;;;5260433;27;20115;-61
2021/06/06 02:39:28;;;;;;;80.40;45.73;;;14.50;99.90;;;;;;5260472;27;20162;-61
2021/06/06 02:41:59;;;;;;;78.50;40.47;;;14.40;99.90;;;;;;5260841;27;20441;-62
2021/06/06 02:44:31;;;;;;;75.43;41.70;;;14.40;99.90;;;;;;5260069;27;20401;-63
2021/06/06 02:46:59;;;;;;;92.70;46.93;;;14.50;99.90;;;;;;5259598;27;20130;-59
2021/06/06 02:49:30;;;;;;;80.30;41.80;;;14.40;99.90;;;;;;5262235;27;20109;-59
2021/06/06 02:52:00;;;;;;;79.20;43.37;;;14.40;99.90;;;;;;5259835;27;20131;-62
2021/06/06 02:54:33;;;;;;;81.57;41.70;;;14.30;99.90;;;;;;5260677;27;20111;-60
2021/06/06 02:57:07;;;;;;;65.80;36.87;;;14.40;99.90;;;;;;5260504;27;20515;-61
2021/06/06 02:59:39;;;;;;;76.50;39.57;;;14.60;99.90;;;;;;5259839;27;20145;-60
2021/06/06 03:02:09;;;;;;;73.47;40.60;;;14.60;99.90;;;;;;5260625;27;20127;-62
2021/06/06 03:04:37;;;;;;;77.77;42.07;;;14.50;99.90;;;;;;5259954;27;20153;-60
2021/06/06 03:07:07;;;;;;;74.17;40.93;;;14.60;99.90;;;;;;5259894;27;20137;-59
2021/06/06 03:09:34;;;;;;;64.43;37.20;;;14.50;99.90;;;;;;5262129;27;20109;-60
2021/06/06 03:12:05;;;;;;;61.77;36.87;;;14.60;99.90;;;;;;5259931;27;20115;-60
2021/06/06 03:14:34;;;;;;;62.50;35.77;;;14.60;99.90;;;;;;5261537;27;20191;-60
2021/06/06 03:17:06;;;;;;;78.00;39.87;;;14.70;99.90;;;;;;5262490;27;20119;-61
2021/06/06 03:19:35;;;;;;;65.60;37.13;;;14.60;99.90;;;;;;5261672;27;20163;-60
2021/06/06 03:22:05;;;;;;;70.40;38.30;;;14.60;99.90;;;;;;5260807;27;20139;-63
2021/06/06 03:24:36;;;;;;;58.33;34.77;;;14.60;99.90;;;;;;5263558;27;20209;-62
2021/06/06 03:27:05;;;;;;;67.93;36.57;;;14.60;99.90;;;;;;5261069;27;20118;-60
2021/06/06 03:29:35;;;;;;;63.70;34.40;;;14.50;99.90;;;;;;5261636;27;20404;-62
2021/06/06 03:32:07;;;;;;;70.50;35.67;;;14.50;99.90;;;;;;5261835;27;20455;-63
2021/06/06 03:34:34;;;;;;;61.47;32.27;;;14.30;99.90;;;;;;5263632;27;20142;-60
2021/06/06 03:37:03;;;;;;;57.40;32.43;;;14.30;99.90;;;;;;5260911;27;20122;-60
2021/06/06 03:39:29;;;;;;;61.87;31.67;;;14.30;99.90;;;;;;5260886;27;20169;-59
2021/06/06 03:42:00;;;;;;;56.23;29.53;;;14.30;99.90;;;;;;5262394;27;20122;-63
2021/06/06 03:44:27;;;;;;;52.43;27.20;;;14.30;99.90;;;;;;5261033;27;20130;-60
2021/06/06 03:46:56;;;;;;;47.33;26.37;;;14.40;99.90;;;;;;5261009;27;20119;-60
2021/06/06 03:49:24;;;;;;;41.87;24.63;;;14.50;99.90;;;;;;5263371;27;20173;-61
2021/06/06 03:51:51;;;;;;;49.00;25.40;;;14.50;99.90;;;;;;5260550;27;20160;-61
2021/06/06 03:54:19;;;;;;;42.33;24.13;;;14.50;99.90;;;;;;5260922;27;20546;-61
2021/06/06 03:56:48;;;;;;;42.47;23.20;;;14.40;99.90;;;;;;5260990;27;20168;-64
2021/06/06 03:59:18;;;;;;;38.87;21.23;;;14.50;99.90;;;;;;5261023;27;20123;-61
2021/06/06 04:01:45;;;;;;;44.70;24.53;;;14.50;99.90;;;;;;5260937;27;20107;-60
2021/06/06 04:04:11;;;;;;;38.73;23.23;;;14.50;99.90;;;;;;5261621;27;20110;-61
2021/06/06 04:06:39;;;;;;;37.53;21.33;;;14.40;99.90;;;;;;5260577;27;20115;-60
2021/06/06 04:09:07;;;;;;;39.73;20.97;;;14.50;99.90;;;;;;5260741;27;20107;-60
2021/06/06 04:11:34;;;;;;;33.73;19.07;;;14.50;99.90;;;;;;5261118;27;20153;-61
2021/06/06 04:14:02;;;;;;;36.87;21.20;;;14.60;99.90;;;;;;5260806;27;20118;-60
2021/06/06 04:16:29;;;;;;;31.40;20.13;;;14.50;99.90;;;;;;5261078;27;20135;-59
2021/06/06 04:18:56;;;;;;;33.20;20.20;;;14.60;99.90;;;;;;5260456;27;20135;-61
2021/06/06 04:21:28;;;;;;;30.07;18.50;;;14.50;99.90;;;;;;5262937;27;20103;-60
2021/06/06 04:23:55;;;;;;;24.23;17.63;;;14.50;99.90;;;;;;5259971;27;20146;-60
2021/06/06 04:26:24;;;;;;;25.70;16.73;;;14.50;99.90;;;;;;5260951;27;20519;-60
2021/06/06 04:28:50;;;;;;;25.03;16.93;;;14.60;99.90;;;;;;5260797;27;20111;-64
2021/06/06 04:31:18;;;;;;;25.37;18.00;;;14.50;99.90;;;;;;5260472;27;20106;-61
2021/06/06 04:33:44;;;;;;;24.93;17.60;;;14.50;99.90;;;;;;5262235;27;20507;-63
2021/06/06 04:36:10;;;;;;;22.03;15.77;;;14.50;99.90;;;;;;5260605;27;20114;-60
2021/06/06 04:38:37;;;;;;;24.13;16.93;;;14.60;99.90;;;;;;5263263;27;20508;-61
2021/06/06 04:41:08;;;;;;;23.07;16.33;;;14.50;99.90;;;;;;5262888;27;20524;-60
2021/06/06 04:43:35;;;;;;;20.80;16.27;;;14.60;99.90;;;;;;5260586;27;20122;-60
2021/06/06 04:46:02;;;;;;;24.07;16.47;;;14.70;99.90;;;;;;5261012;27;20119;-61
2021/06/06 04:48:32;;;;;;;21.50;15.27;;;14.70;99.90;;;;;;5259683;27;20183;-60
2021/06/06 04:51:00;;;;;;;20.40;15.20;;;14.70;99.90;;;;;;5260506;27;20164;-63
2021/06/06 04:53:27;;;;;;;21.07;14.67;;;14.80;99.90;;;;;;5262890;27;20493;-61
2021/06/06 04:55:56;;;;;;;22.70;15.57;;;14.80;99.90;;;;;;5260125;27;20135;-61
2021/06/06 04:58:26;;;;;;;17.67;13.93;;;14.80;99.90;;;;;;5260465;27;20118;-62
2021/06/06 05:00:52;;;;;;;19.67;14.77;;;14.70;99.90;;;;;;5260533;27;20110;-63
2021/06/06 05:03:20;;;;;;;21.80;15.27;;;14.60;99.90;;;;;;5260774;27;20149;-60
2021/06/06 05:05:47;;;;;;;20.50;15.27;;;14.70;99.90;;;;;;5260806;27;20114;-62
2021/06/06 05:08:16;;;;;;;22.20;16.00;;;14.70;99.90;;;;;;5263050;27;20459;-60
2021/06/06 05:10:46;;;;;;;20.37;14.10;;;14.70;99.90;;;;;;5260259;27;20690;-61
2021/06/06 05:13:15;;;;;;;23.70;15.63;;;14.80;99.90;;;;;;5260685;27;20108;-59
2021/06/06 05:15:43;;;;;;;17.00;13.77;;;14.80;99.90;;;;;;5260234;27;20107;-59
2021/06/06 05:18:12;;;;;;;23.33;15.60;;;14.80;99.90;;;;;;5262096;27;20150;-62
2021/06/06 05:20:41;;;;;;;22.10;14.23;;;14.80;99.90;;;;;;5261068;27;20109;-60
2021/06/06 05:23:11;;;;;;;17.97;14.73;;;14.90;99.90;;;;;;5260306;27;20150;-60
2021/06/06 05:25:39;;;;;;;16.93;13.23;;;14.90;99.90;;;;;;5261063;27;20566;-62
2021/06/06 05:28:07;;;;;;;15.60;12.37;;;14.90;99.90;;;;;;5261280;27;20138;-60
2021/06/06 05:30:36;;;;;;;20.53;14.57;;;14.90;99.90;;;;;;5260685;27;20110;-60
2021/06/06 05:33:05;;;;;;;18.03;13.20;;;15.00;99.90;;;;;;5260805;27;20153;-60
2021/06/06 05:35:34;;;;;;;21.30;14.60;;;15.00;99.90;;;;;;5260148;27;20132;-60
2021/06/06 05:38:05;;;;;;;15.67;13.23;;;14.80;99.90;;;;;;5260617;27;20131;-60
2021/06/06 05:40:33;;;;;;;18.40;14.03;;;15.00;99.90;;;;;;5260785;27;20138;-61
2021/06/06 05:43:01;;;;;;;13.53;12.00;;;15.00;99.90;;;;;;5260386;27;20202;-60
2021/06/06 05:45:28;;;;;;;15.47;12.03;;;15.00;99.90;;;;;;5260596;27;20149;-60
2021/06/06 05:47:54;;;;;;;20.13;14.10;;;15.10;99.90;;;;;;5260644;27;20512;-59
2021/06/06 05:50:25;;;;;;;16.47;12.30;;;15.20;99.90;;;;;;5260515;27;20108;-60
2021/06/06 05:52:52;;;;;;;17.27;13.37;;;15.10;99.90;;;;;;5260527;27;20149;-63
2021/06/06 05:55:20;;;;;;;20.80;14.17;;;15.30;99.90;;;;;;5260688;27;20107;-60
2021/06/06 05:57:47;;;;;;;17.60;15.00;;;15.30;99.90;;;;;;5260417;27;20428;-61
2021/06/06 06:00:16;;;;;;;19.80;15.30;;;15.30;99.90;;;;;;5260771;27;20605;-60
2021/06/06 06:02:43;;;;;;;17.17;13.00;;;15.20;99.90;;;;;;5260348;27;20142;-60
2021/06/06 06:05:10;;;;;;;18.83;13.63;;;15.30;99.90;;;;;;5259693;27;20138;-61
2021/06/06 06:07:38;;;;;;;16.87;12.97;;;15.40;99.90;;;;;;5260237;27;20119;-62
2021/06/06 06:10:06;;;;;;;21.23;15.30;;;15.70;99.90;;;;;;5260441;27;20162;-60
2021/06/06 06:12:35;;;;;;;24.70;16.97;;;15.60;99.90;;;;;;5260896;27;20593;-60
2021/06/06 06:15:01;;;;;;;19.83;14.80;;;15.60;99.90;;;;;;5260035;27;20129;-60
2021/06/06 06:17:28;;;;;;;21.33;16.07;;;15.80;99.90;;;;;;5260536;27;20127;-60
2021/06/06 06:19:54;;;;;;;19.77;14.63;;;16.20;99.90;;;;;;5262744;27;20123;-60
2021/06/06 06:22:20;;;;;;;18.93;14.67;;;16.70;99.90;;;;;;5260168;27;20107;-60
2021/06/06 06:24:48;;;;;;;18.77;15.43;;;17.20;99.90;;;;;;5259619;27;20174;-60
2021/06/06 06:27:14;;;;;;;19.80;15.03;;;16.90;99.90;;;;;;5261522;27;20530;-60
2021/06/06 06:29:40;;;;;;;18.90;14.83;;;17.00;99.90;;;;;;5260420;27;20122;-64
2021/06/06 06:32:07;;;;;;;21.50;15.90;;;16.90;99.90;;;;;;5260225;27;20107;-61
2021/06/06 06:34:33;;;;;;;20.17;16.10;;;16.70;99.90;;;;;;5262782;27;20106;-58
2021/06/06 06:37:00;;;;;;;20.47;15.17;;;16.80;99.90;;;;;;5260184;27;20119;-62
2021/06/06 06:39:26;;;;;;;16.77;14.60;;;16.80;99.90;;;;;;5259957;27;20532;-59
2021/06/06 06:41:54;;;;;;;20.20;15.63;;;16.90;99.90;;;;;;5261855;27;20124;-62
2021/06/06 06:44:21;;;;;;;25.03;15.13;;;17.30;99.90;;;;;;5260181;27;20115;-60
2021/06/06 06:46:47;;;;;;;18.70;15.53;;;17.40;99.90;;;;;;5260297;27;20132;-61
2021/06/06 06:49:13;;;;;;;17.73;14.03;;;17.70;99.90;;;;;;5263969;27;20107;-60
2021/06/06 06:51:40;;;;;;;19.03;14.23;;;18.10;99.90;;;;;;5263429;27;20150;-61
2021/06/06 06:54:06;;;;;;;18.40;15.30;;;18.20;99.90;;;;;;5261794;27;20107;-60
2021/06/06 06:56:35;;;;;;;14.57;12.77;;;17.90;99.90;;;;;;5261731;27;20569;-59
2021/06/06 06:59:06;;;;;;;19.00;13.80;;;18.50;99.90;;;;;;5261609;27;20153;-61
2021/06/06 07:01:33;;;;;;;18.43;13.67;;;18.70;99.90;;;;;;5261617;27;20122;-59
2021/06/06 07:03:59;;;;;;;16.90;14.07;;;19.10;99.90;;;;;;5261963;27;20134;-60
2021/06/06 07:06:25;;;;;;;16.67;13.20;;;19.70;99.90;;;;;;5261549;27;20437;-60
2021/06/06 07:08:53;;;;;;;13.47;11.73;;;20.30;99.90;;;;;;5261226;27;20107;-60
2021/06/06 07:11:22;;;;;;;13.70;11.47;;;20.80;99.90;;;;;;5261297;27;20150;-61
2021/06/06 07:13:49;;;;;;;12.83;11.33;;;21.40;98.90;;;;;;5263115;27;20161;-61
2021/06/06 07:16:20;;;;;;;14.83;12.50;;;22.70;97.00;;;;;;5261867;27;20126;-62
2021/06/06 07:18:47;;;;;;;13.87;11.57;;;22.80;96.20;;;;;;5262522;27;20116;-61
2021/06/06 07:21:17;;;;;;;14.10;11.83;;;22.80;94.90;;;;;;5261066;27;20131;-62
2021/06/06 07:23:44;;;;;;;14.17;12.10;;;22.70;95.40;;;;;;5261459;27;20135;-60
2021/06/06 07:26:14;;;;;;;13.30;10.97;;;24.10;93.50;;;;;;5260965;27;20449;-60
2021/06/06 07:28:40;;;;;;;10.27;8.97;;;27.00;90.10;;;;;;5261522;27;20554;-63
2021/06/06 07:31:07;;;;;;;12.27;9.50;;;28.70;81.90;;;;;;5261376;27;20168;-62
2021/06/06 07:33:37;;;;;;;11.80;10.18;;;27.10;82.20;;;;;;5261987;27;20150;-62
2021/06/06 07:36:05;;;;;;;12.13;10.10;;;27.60;80.60;;;;;;5261126;27;20115;-62
2021/06/06 07:38:32;;;;;;;11.33;10.10;;;26.60;79.20;;;;;;5260635;27;20500;-61
2021/06/06 07:40:59;;;;;;;10.17;8.83;;;26.20;81.20;;;;;;5260684;27;20107;-63
2021/06/06 07:43:27;;;;;;;11.57;8.67;;;26.00;83.40;;;;;;5261072;27;20114;-61
2021/06/06 07:45:54;;;;;;;10.37;8.27;;;25.40;83.90;;;;;;5262240;27;20127;-61
2021/06/06 07:48:21;;;;;;;9.97;8.57;;;23.50;87.10;;;;;;5261113;27;20139;-61
2021/06/06 07:50:53;;;;;;;8.60;7.60;;;22.00;90.70;;;;;;5260931;27;20126;-61
2021/06/06 07:53:21;;;;;;;9.33;6.83;;;25.10;88.30;;;;;;5261300;27;20150;-62
2021/06/06 07:55:48;;;;;;;7.80;5.63;;;27.10;78.70;;;;;;5261156;27;20118;-64
2021/06/06 07:58:19;;;;;;;8.80;4.93;;;28.50;81.40;;;;;;5260812;27;20155;-61
2021/06/06 08:00:45;;;;;;;6.35;5.25;;;30.70;71.70;;;;;;5261155;27;20439;-63
2021/06/06 08:03:12;;;;;;;7.50;5.47;;;28.00;67.90;;;;;;5261651;27;20443;-63
2021/06/06 08:05:39;;;;;;;6.78;4.85;;;32.30;65.90;;;;;;5259879;27;20181;-62
2021/06/06 08:08:09;;;;;;;5.95;5.10;;;37.10;57.00;;;;;;5259991;27;20501;-63
2021/06/06 08:10:40;;;;;;;9.18;5.55;;;37.60;45.20;;;;;;5261383;27;20142;-60
2021/06/06 08:13:06;;;;;;;6.37;4.40;;;37.70;49.10;;;;;;5263007;27;20138;-61
2021/06/06 08:15:33;;;;;;;5.93;3.97;;;43.30;43.20;;;;;;5258785;27;20127;-60
2021/06/06 08:18:06;;;;;;;5.12;4.57;;;43.70;37.90;;;;;;5260504;27;20139;-61
2021/06/06 08:20:37;;;;;;;4.37;3.83;;;42.70;38.10;;;;;;5260987;27;20153;-63
2021/06/06 08:23:04;;;;;;;5.90;4.20;;;43.40;37.50;;;;;;5261211;27;20106;-65
2021/06/06 08:25:32;;;;;;;4.43;3.17;;;41.90;35.90;;;;;;5260432;27;20104;-62
2021/06/06 08:27:59;;;;;;;4.30;3.90;;;39.10;36.90;;;;;;5261155;27;20134;-62
2021/06/06 08:30:30;;;;;;;4.28;3.87;;;38.60;38.40;;;;;;5260713;27;20169;-61
2021/06/06 08:32:59;;;;;;;6.90;4.32;;;42.00;37.70;;;;;;5260025;27;20138;-62
2021/06/06 08:35:29;;;;;;;4.35;3.67;;;39.60;36.00;;;;;;5256986;27;20483;-62
2021/06/06 08:37:57;;;;;;;4.32;3.87;;;36.30;39.70;;;;;;5259876;27;20156;-59
2021/06/06 08:40:30;;;;;;;3.97;3.37;;;31.70;42.80;;;;;;5262034;27;20145;-61
2021/06/06 08:42:59;;;;;;;5.57;3.90;;;29.70;47.80;;;;;;5262436;27;20122;-62
2021/06/06 08:45:32;;;;;;;5.43;3.65;;;30.60;45.90;;;;;;5259909;27;20185;-61
2021/06/06 08:48:01;;;;;;;4.03;3.35;;;29.10;47.30;;;;;;5262173;27;20446;-62
2021/06/06 08:50:31;;;;;;;4.40;4.00;;;28.20;49.60;;;;;;5259855;27;20127;-62
2021/06/06 08:53:07;;;;;;;4.62;3.08;;;27.10;51.60;;;;;;5260845;27;20166;-62
2021/06/06 08:55:42;;;;;;;8.02;3.33;;;28.20;51.40;;;;;;5260860;27;20435;-61
2021/06/06 08:58:32;;;;;;;3.62;3.22;;;28.00;51.80;;;;;;5260611;27;20107;-63
2021/06/06 09:01:10;;;;;;;4.53;3.03;;;34.40;47.20;;;;;;5260747;27;20464;-59
2021/06/06 09:03:38;;;;;;;4.37;3.58;;;40.60;39.50;;;;;;5261055;27;20130;-60
2021/06/06 09:06:12;;;;;;;3.55;3.20;;;37.30;37.90;;;;;;5261768;27;20134;-60
2021/06/06 09:08:39;;;;;;;4.35;2.65;;;37.80;39.80;;;;;;5260608;27;20098;-63
2021/06/06 09:11:10;;;;;;;3.97;2.80;;;40.40;38.10;;;;;;5260656;27;20152;-62
2021/06/06 09:13:38;;;;;;;4.75;3.17;;;38.50;38.20;;;;;;5259328;27;20126;-59
2021/06/06 09:16:16;;;;;;;4.65;3.33;;;36.70;39.30;;;;;;5260607;27;20169;-60
2021/06/06 09:18:46;;;;;;;2.55;2.17;;;39.80;37.50;;;;;;5259974;27;20159;-61
2021/06/06 09:21:18;;;;;;;3.42;2.55;;;39.60;37.50;;;;;;5260390;27;20586;-61
2021/06/06 09:23:45;;;;;;;3.90;3.25;;;38.90;37.40;;;;;;5255225;27;20582;-61
2021/06/06 09:26:14;;;;;;;3.80;2.70;;;36.80;40.10;;;;;;5260698;27;20135;-61
2021/06/06 09:28:44;;;;;;;3.65;3.03;;;37.70;39.00;;;;;;5260687;27;20139;-60
2021/06/06 09:31:20;;;;;;;3.85;2.83;;;35.90;39.90;;;;;;5260533;27;20120;-60
2021/06/06 09:33:49;;;;;;;3.70;3.08;;;36.20;40.30;;;;;;5260586;27;20110;-60
2021/06/06 09:36:19;;;;;;;3.33;3.03;;;39.10;38.70;;;;;;5260142;27;20221;-60
2021/06/06 09:38:47;;;;;;;4.70;3.40;;;42.00;36.00;;;;;;5260734;27;20126;-61
2021/06/06 09:41:24;;;;;;;3.62;2.80;;;41.10;34.90;;;;;;5260340;27;20107;-60
2021/06/06 09:44:01;;;;;;;4.90;3.42;;;36.40;38.20;;;;;;5260391;27;20164;-60
2021/06/06 09:46:35;;;;;;;4.57;2.70;;;32.70;41.90;;;;;;5259710;27;20480;-59
2021/06/06 09:49:22;;;;;;;3.80;3.17;;;30.80;45.40;;;;;;5260319;27;20111;-61
2021/06/06 09:51:49;;;;;;;3.53;3.05;;;31.90;46.00;;;;;;5260000;27;20155;-61
2021/06/06 09:54:24;;;;;;;5.00;3.50;;;32.20;45.10;;;;;;5260111;27;20446;-61
2021/06/06 09:56:53;;;;;;;4.65;3.42;;;31.60;44.90;;;;;;5260366;27;20111;-59
2021/06/06 09:59:26;;;;;;;6.70;3.25;;;29.50;47.20;;;;;;5260875;27;20161;-61
2021/06/06 10:01:58;;;;;;;5.53;3.80;;;27.40;49.40;;;;;;5258986;27;20123;-62
2021/06/06 10:04:27;;;;;;;5.12;3.22;;;26.20;52.60;;;;;;5257400;27;20126;-62
2021/06/06 10:06:54;;;;;;;3.83;3.47;;;25.80;54.00;;;;;;5260178;27;20103;-61
2021/06/06 10:09:30;;;;;;;6.32;3.60;;;25.90;52.70;;;;;;5260846;27;20143;-62
2021/06/06 10:12:04;;;;;;;3.12;2.85;;;25.60;54.40;;;;;;5260371;27;20152;-61
2021/06/06 10:14:38;;;;;;;4.70;3.00;;;25.30;55.10;;;;;;5260097;27;20145;-63
2021/06/06 10:17:07;;;;;;;2.67;2.35;;;25.60;55.10;;;;;;5260250;27;20103;-60
2021/06/06 10:19:38;;;;;;;4.07;2.95;;;25.70;55.50;;;;;;5260419;27;20118;-61
2021/06/06 10:22:09;;;;;;;4.55;3.20;;;25.60;55.70;;;;;;5260382;27;20115;-61
2021/06/06 10:24:42;;;;;;;3.60;3.03;;;25.70;56.00;;;;;;5260229;27;20448;-62
2021/06/06 10:27:13;;;;;;;5.53;3.20;;;25.60;55.80;;;;;;5260172;27;20193;-60
2021/06/06 10:29:45;;;;;;;3.78;3.37;;;25.40;55.80;;;;;;5260957;27;20154;-62
2021/06/06 10:32:16;;;;;;;5.37;3.10;;;25.20;56.40;;;;;;5259515;27;20108;-62
2021/06/06 10:34:47;;;;;;;4.37;3.40;;;25.40;55.80;;;;;;5260135;27;20146;-62
2021/06/06 10:37:14;;;;;;;5.18;2.72;;;25.30;55.40;;;;;;5260006;27;20126;-60
2021/06/06 10:39:43;;;;;;;7.28;2.58;;;25.20;56.20;;;;;;5258009;27;20139;-61
2021/06/06 10:42:13;;;;;;;3.45;2.30;;;25.00;56.40;;;;;;5261443;27;20135;-63
2021/06/06 10:44:53;;;;;;;3.83;1.83;;;25.00;55.40;;;;;;5260035;27;20563;-61
2021/06/06 10:47:24;;;;;;;2.87;1.70;;;24.40;56.00;;;;;;5260020;27;20165;-63
2021/06/06 10:49:54;;;;;;;4.43;2.00;;;24.00;57.30;;;;;;5260214;27;20181;-61
2021/06/06 10:52:27;;;;;;;2.33;1.50;;;23.90;56.40;;;;;;5260183;27;20154;-61
2021/06/06 10:54:57;;;;;;;4.73;2.40;;;23.90;58.10;;;;;;5260109;27;20577;-63
2021/06/06 10:57:34;;;;;;;4.33;1.70;;;23.80;57.10;;;;;;5259862;27;20150;-62
2021/06/06 11:00:28;;;;;;;3.53;1.60;;;23.90;56.40;;;;;;5261442;27;20122;-62
2021/06/06 11:02:59;;;;;;;3.37;1.70;;;24.00;56.50;;;;;;5260297;27;20217;-61
2021/06/06 11:05:45;;;;;;;7.37;1.77;;;24.00;57.10;;;;;;5258059;27;20153;-65
2021/06/06 11:08:50;;;;;;;3.00;1.80;;;24.00;57.20;;;;;;5259368;27;20202;-63
2021/06/06 11:11:21;;;;;;;2.53;1.60;;;23.90;57.40;;;;;;5260369;27;20160;-62
2021/06/06 11:13:52;;;;;;;3.60;1.70;;;23.80;57.30;;;;;;5262798;27;20408;-61
2021/06/06 11:16:33;;;;;;;4.50;1.80;;;23.60;58.50;;;;;;5260888;27;20532;-62
2021/06/06 11:19:03;;;;;;;3.27;1.77;;;23.40;57.20;;;;;;5257212;27;20150;-62
2021/06/06 11:21:34;;;;;;;1.77;1.30;;;23.40;57.40;;;;;;5258426;27;20151;-61
2021/06/06 11:24:02;;;;;;;5.60;1.83;;;23.40;58.70;;;;;;5260022;27;20548;-61
2021/06/06 11:26:38;;;;;;;4.10;1.60;;;23.20;58.60;;;;;;5262108;27;20516;-61
2021/06/06 11:29:15;;;;;;;3.37;1.47;;;23.20;56.20;;;;;;5260119;27;20106;-61
2021/06/06 11:32:00;;;;;;;3.67;0.97;;;23.20;57.60;;;;;;5259123;27;20160;-60
2021/06/06 11:34:31;;;;;;;4.63;1.33;;;22.90;54.60;;;;;;5258806;27;20135;-62
2021/06/06 11:37:04;;;;;;;2.73;1.17;;;22.70;55.10;;;;;;5260673;27;20188;-63
2021/06/06 11:39:38;;;;;;;4.93;1.10;;;22.50;56.90;;;;;;5263256;27;20143;-60
2021/06/06 11:42:18;;;;;;;3.43;1.23;;;22.50;55.70;;;;;;5263248;27;20125;-61
2021/06/06 11:44:48;;;;;;;3.33;0.90;;;22.30;57.60;;;;;;5260670;27;20185;-60
2021/06/06 11:47:24;;;;;;;3.23;1.13;;;22.50;57.90;;;;;;5261312;27;20130;-61
2021/06/06 11:49:59;;;;;;;2.07;1.00;;;22.60;57.60;;;;;;5259512;27;20132;-61
2021/06/06 11:52:34;;;;;;;2.23;0.93;;;22.80;56.70;;;;;;5259952;27;20137;-62
2021/06/06 11:55:07;;;;;;;1.80;1.00;;;22.80;56.30;;;;;;5262046;27;20121;-63
2021/06/06 11:57:37;;;;;;;1.53;0.93;;;22.80;56.70;;;;;;5261921;27;20111;-63
2021/06/06 12:00:09;;;;;;;4.37;1.40;;;22.90;57.30;;;;;;5261937;27;20123;-61
2021/06/06 12:02:37;;;;;;;1.57;0.80;;;23.10;57.60;;;;;;5261425;27;20167;-61
2021/06/06 12:05:13;;;;;;;1.53;0.97;;;23.00;56.20;;;;;;5261071;27;20576;-62
2021/06/06 12:07:43;;;;;;;2.07;1.00;;;23.20;56.90;;;;;;5261192;27;20251;-63
2021/06/06 12:10:21;;;;;;;2.90;1.10;;;23.20;57.00;;;;;;5261269;27;20155;-63
2021/06/06 12:12:49;;;;;;;1.67;1.00;;;22.90;57.00;;;;;;5261287;27;20146;-61
2021/06/06 12:15:21;;;;;;;3.20;1.10;;;23.10;56.20;;;;;;5260630;27;20454;-60
2021/06/06 12:17:59;;;;;;;4.00;0.90;;;22.90;53.10;;;;;;5261113;27;20138;-60
2021/06/06 12:20:25;;;;;;;3.20;0.93;;;22.80;56.20;;;;;;5260940;27;20175;-62
2021/06/06 12:23:05;;;;;;;1.73;1.00;;;22.90;55.40;;;;;;5259430;27;20472;-60
2021/06/06 12:25:35;;;;;;;2.23;1.10;;;22.90;55.30;;;;;;5261150;27;20107;-62
2021/06/06 12:28:07;;;;;;;2.20;0.60;;;22.80;56.70;;;;;;5262763;27;20107;-61
2021/06/06 12:30:47;;;;;;;2.20;1.00;;;22.90;56.30;;;;;;5262658;27;20415;-61
2021/06/06 12:33:19;;;;;;;2.50;0.80;;;23.00;54.90;;;;;;5262644;27;20434;-61
2021/06/06 12:35:50;;;;;;;2.60;0.90;;;23.10;53.70;;;;;;5260645;27;20515;-63
2021/06/06 12:38:18;;;;;;;3.57;0.90;;;23.00;53.10;;;;;;5260556;27;20153;-63
2021/06/06 12:40:45;;;;;;;2.30;0.90;;;23.00;53.60;;;;;;5260669;27;20118;-61
2021/06/06 12:43:13;;;;;;;3.17;1.10;;;23.10;53.50;;;;;;5260643;27;20122;-61
2021/06/06 12:45:43;;;;;;;1.87;0.80;;;23.00;54.20;;;;;;5262606;27;20189;-62
2021/06/06 12:48:14;;;;;;;1.80;0.90;;;23.10;55.20;;;;;;5263261;27;20173;-62
2021/06/06 12:50:44;;;;;;;3.93;1.00;;;22.90;53.80;;;;;;5260854;27;20458;-61